createdAt,value
2018-12-30T00:01:22.095Z,3.80
2018-12-30T00:03:52.537Z,3.70
2018-12-30T00:06:23.625Z,3.70
2018-12-30T00:08:54.478Z,3.80
2018-12-30T00:11:27.846Z,4.00
2018-12-30T00:13:58.326Z,4.00
2018-12-30T00:16:28.750Z,4.10
2018-12-30T00:18:59.137Z,4.20
2018-12-30T00:21:29.741Z,4.30
2018-12-30T00:24:00.139Z,4.40
2018-12-30T00:26:30.566Z,4.40
2018-12-30T00:29:01.317Z,4.50
2018-12-30T00:31:31.754Z,4.50
2018-12-30T00:34:02.287Z,4.60
2018-12-30T00:36:32.829Z,4.70
2018-12-30T00:39:03.382Z,4.60
2018-12-30T00:41:34.110Z,4.60
2018-12-30T00:44:04.459Z,4.70
2018-12-30T00:46:35.017Z,4.60
2018-12-30T00:49:05.481Z,4.70
2018-12-30T00:51:35.959Z,4.70
2018-12-30T00:54:06.646Z,4.80
2018-12-30T00:56:37.059Z,4.80
2018-12-30T00:59:07.509Z,4.80
2018-12-30T01:01:38.044Z,4.90
2018-12-30T01:04:08.475Z,4.80
2018-12-30T01:06:38.865Z,4.90
2018-12-30T01:09:09.349Z,4.90
2018-12-30T01:11:40.036Z,4.80
2018-12-30T01:14:10.473Z,4.70
2018-12-30T01:16:40.937Z,4.80
2018-12-30T01:19:11.289Z,4.80
2018-12-30T01:21:41.688Z,4.80
2018-12-30T01:24:12.022Z,4.90
2018-12-30T01:26:42.390Z,4.90
2018-12-30T01:29:12.802Z,4.80
2018-12-30T01:31:43.571Z,4.80
2018-12-30T01:34:13.988Z,4.80
2018-12-30T01:36:44.500Z,4.90
2018-12-30T01:39:14.866Z,4.80
2018-12-30T01:41:45.477Z,4.80
2018-12-30T01:44:15.813Z,4.80
2018-12-30T01:46:46.185Z,4.90
2018-12-30T01:49:16.637Z,5.00
2018-12-30T01:51:47.081Z,4.90
2018-12-30T01:54:17.911Z,5.00
2018-12-30T01:56:48.391Z,4.90
2018-12-30T01:59:18.810Z,4.90
2018-12-30T02:01:49.158Z,5.00
2018-12-30T02:04:19.539Z,4.90
2018-12-30T02:06:49.984Z,5.00
2018-12-30T02:09:20.346Z,4.90
2018-12-30T02:11:50.781Z,4.90
2018-12-30T02:14:21.127Z,4.90
2018-12-30T02:16:51.843Z,5.00
2018-12-30T02:19:22.227Z,5.00
2018-12-30T02:21:52.642Z,5.10
2018-12-30T02:24:23.024Z,5.10
2018-12-30T02:26:53.385Z,5.10
2018-12-30T02:29:23.741Z,5.20
2018-12-30T02:31:54.111Z,5.20
2018-12-30T02:34:24.554Z,5.30
2018-12-30T02:36:54.900Z,5.20
2018-12-30T02:39:25.255Z,5.10
2018-12-30T02:41:55.756Z,5.20
2018-12-30T02:44:26.167Z,5.20
2018-12-30T02:46:56.510Z,5.20
2018-12-30T02:49:26.902Z,5.20
2018-12-30T02:51:57.326Z,5.10
2018-12-30T02:54:27.684Z,5.10
2018-12-30T02:56:58.090Z,5.10
2018-12-30T02:59:28.509Z,5.20
2018-12-30T03:01:59.162Z,5.20
2018-12-30T03:04:29.643Z,5.10
2018-12-30T03:07:00.002Z,5.20
2018-12-30T03:09:30.373Z,5.30
2018-12-30T03:12:00.754Z,5.20
2018-12-30T03:14:31.181Z,5.20
2018-12-30T03:17:01.568Z,5.30
2018-12-30T03:19:32.009Z,5.30
2018-12-30T03:22:02.398Z,5.30
2018-12-30T03:24:32.746Z,5.40
2018-12-30T03:27:03.114Z,5.30
2018-12-30T03:29:33.446Z,5.30
2018-12-30T03:32:03.899Z,5.30
2018-12-30T03:34:34.258Z,5.40
2018-12-30T03:37:04.629Z,5.40
2018-12-30T03:39:34.985Z,5.30
2018-12-30T03:42:05.380Z,5.30
2018-12-30T03:44:35.750Z,5.30
2018-12-30T03:47:06.101Z,5.40
2018-12-30T03:49:36.474Z,5.50
2018-12-30T03:52:08.645Z,5.50
2018-12-30T03:54:38.873Z,5.40
2018-12-30T03:57:09.243Z,5.30
2018-12-30T03:59:39.617Z,5.50
2018-12-30T04:02:09.978Z,5.40
2018-12-30T04:04:40.333Z,5.40
2018-12-30T04:07:10.686Z,5.40
2018-12-30T04:09:41.046Z,5.40
2018-12-30T04:12:11.393Z,5.50
2018-12-30T04:14:41.871Z,5.40
2018-12-30T04:17:12.205Z,5.30
2018-12-30T04:19:42.580Z,5.20
2018-12-30T04:22:16.826Z,5.20
2018-12-30T04:24:44.973Z,5.30
2018-12-30T04:27:15.320Z,5.20
2018-12-30T04:29:45.732Z,5.30
2018-12-30T04:32:16.099Z,5.40
2018-12-30T04:34:46.454Z,5.30
2018-12-30T04:37:16.824Z,5.20
2018-12-30T04:39:47.216Z,5.30
2018-12-30T04:42:17.588Z,5.30
2018-12-30T04:44:48.054Z,5.30
2018-12-30T04:47:18.430Z,5.40
2018-12-30T04:49:48.836Z,5.40
2018-12-30T04:52:25.618Z,5.50
2018-12-30T04:54:51.245Z,5.50
2018-12-30T04:57:21.655Z,5.50
2018-12-30T04:59:52.014Z,5.50
2018-12-30T05:02:22.381Z,5.60
2018-12-30T05:04:52.742Z,5.50
2018-12-30T05:07:23.105Z,5.40
2018-12-30T05:09:53.464Z,5.40
2018-12-30T05:12:23.874Z,5.40
2018-12-30T05:14:54.237Z,5.40
2018-12-30T05:17:24.659Z,5.40
2018-12-30T05:19:55.223Z,5.50
2018-12-30T05:22:33.646Z,5.40
2018-12-30T05:24:57.606Z,5.40
2018-12-30T05:27:27.982Z,5.40
2018-12-30T05:29:58.324Z,5.40
2018-12-30T05:32:28.682Z,5.40
2018-12-30T05:34:59.074Z,5.50
2018-12-30T05:37:29.443Z,5.40
2018-12-30T05:39:59.781Z,5.40
2018-12-30T05:42:30.156Z,5.30
2018-12-30T05:45:00.510Z,5.40
2018-12-30T05:47:30.868Z,5.40
2018-12-30T05:50:01.222Z,5.50
2018-12-30T05:52:31.574Z,5.50
2018-12-30T05:55:01.950Z,5.50
2018-12-30T05:57:32.294Z,5.50
2018-12-30T06:00:02.657Z,5.60
2018-12-30T06:02:33.006Z,5.50
2018-12-30T06:05:03.365Z,5.50
2018-12-30T06:07:33.706Z,5.60
2018-12-30T06:10:04.352Z,5.60
2018-12-30T06:12:34.733Z,5.60
2018-12-30T06:15:05.287Z,5.70
2018-12-30T06:17:35.647Z,5.70
2018-12-30T06:20:06.207Z,5.70
2018-12-30T06:22:36.548Z,5.60
2018-12-30T06:25:06.888Z,5.50
2018-12-30T06:27:37.222Z,5.40
2018-12-30T06:30:07.667Z,5.60
2018-12-30T06:32:38.010Z,5.60
2018-12-30T06:35:08.359Z,5.60
2018-12-30T06:37:38.691Z,5.60
2018-12-30T06:40:11.398Z,5.60
2018-12-30T06:42:41.165Z,5.70
2018-12-30T06:45:11.934Z,5.80
2018-12-30T06:47:42.269Z,5.50
2018-12-30T06:50:12.627Z,5.40
2018-12-30T06:52:42.996Z,5.40
2018-12-30T06:55:13.337Z,5.40
2018-12-30T06:57:43.678Z,5.50
2018-12-30T07:00:14.094Z,5.50
2018-12-30T07:02:44.479Z,5.50
2018-12-30T07:05:14.919Z,5.70
2018-12-30T07:07:45.294Z,5.70
2018-12-30T07:10:15.618Z,5.80
2018-12-30T07:12:45.981Z,5.80
2018-12-30T07:15:16.375Z,5.80
2018-12-30T07:17:46.739Z,5.80
2018-12-30T07:20:17.095Z,5.80
2018-12-30T07:22:47.485Z,5.90
2018-12-30T07:25:17.884Z,5.90
2018-12-30T07:27:48.270Z,5.90
2018-12-30T07:30:18.753Z,5.90
2018-12-30T07:32:49.135Z,5.90
2018-12-30T07:35:19.478Z,5.90
2018-12-30T07:37:49.886Z,5.90
2018-12-30T07:40:20.212Z,5.90
2018-12-30T07:42:50.622Z,5.90
2018-12-30T07:45:20.986Z,5.90
2018-12-30T07:47:51.426Z,5.90
2018-12-30T07:50:21.770Z,5.90
2018-12-30T07:52:52.237Z,5.90
2018-12-30T07:55:22.578Z,5.90
2018-12-30T07:57:52.987Z,5.90
2018-12-30T08:00:23.369Z,5.80
2018-12-30T08:02:53.710Z,5.80
2018-12-30T08:05:24.149Z,5.60
2018-12-30T08:07:54.509Z,5.80
2018-12-30T08:10:24.941Z,5.90
2018-12-30T08:12:55.278Z,5.90
2018-12-30T08:15:25.625Z,5.90
2018-12-30T08:17:55.982Z,5.90
2018-12-30T08:20:26.338Z,5.90
2018-12-30T08:22:56.681Z,5.90
2018-12-30T08:25:27.070Z,5.90
2018-12-30T08:27:57.423Z,6.00
2018-12-30T08:30:27.787Z,6.10
2018-12-30T08:32:58.127Z,5.90
2018-12-30T08:35:28.565Z,5.90
2018-12-30T08:37:58.889Z,6.00
2018-12-30T08:40:29.287Z,5.90
2018-12-30T08:42:59.689Z,5.90
2018-12-30T08:45:30.073Z,6.00
2018-12-30T08:48:00.424Z,6.00
2018-12-30T08:50:30.762Z,6.10
2018-12-30T08:53:01.113Z,6.00
2018-12-30T08:55:31.574Z,5.90
2018-12-30T08:58:01.922Z,6.10
2018-12-30T09:00:32.312Z,6.10
2018-12-30T09:03:02.732Z,6.20
2018-12-30T09:05:33.106Z,6.10
2018-12-30T09:08:03.537Z,6.30
2018-12-30T09:10:33.904Z,6.40
2018-12-30T09:13:04.289Z,6.40
2018-12-30T09:15:34.650Z,6.50
2018-12-30T09:18:05.026Z,6.50
2018-12-30T09:20:35.402Z,6.40
2018-12-30T09:23:05.794Z,6.40
2018-12-30T09:25:36.285Z,6.50
2018-12-30T09:28:06.656Z,6.60
2018-12-30T09:30:36.990Z,6.60
2018-12-30T09:33:07.361Z,6.50
2018-12-30T09:35:37.725Z,6.60
2018-12-30T09:38:08.113Z,6.50
2018-12-30T09:40:38.574Z,6.50
2018-12-30T09:43:08.962Z,6.50
2018-12-30T09:45:39.426Z,6.50
2018-12-30T09:48:09.797Z,6.60
2018-12-30T09:50:40.206Z,6.80
2018-12-30T09:53:10.589Z,6.70
2018-12-30T09:55:40.949Z,6.80
2018-12-30T09:58:11.302Z,6.90
2018-12-30T10:00:41.669Z,6.80
2018-12-30T10:03:12.017Z,6.70
2018-12-30T10:05:42.378Z,6.80
2018-12-30T10:08:12.762Z,6.90
2018-12-30T10:10:43.138Z,7.00
2018-12-30T10:13:13.510Z,6.90
2018-12-30T10:15:43.937Z,6.80
2018-12-30T10:18:14.325Z,6.90
2018-12-30T10:20:44.778Z,6.70
2018-12-30T10:23:15.133Z,6.90
2018-12-30T10:25:45.494Z,6.80
2018-12-30T10:28:15.863Z,6.70
2018-12-30T10:30:46.637Z,6.70
2018-12-30T10:33:16.970Z,6.60
2018-12-30T10:35:47.339Z,6.80
2018-12-30T10:38:17.689Z,6.60
2018-12-30T10:40:48.050Z,6.50
2018-12-30T10:43:18.542Z,6.60
2018-12-30T10:45:48.891Z,6.50
2018-12-30T10:48:19.307Z,6.60
2018-12-30T10:50:49.649Z,6.70
2018-12-30T10:53:20.120Z,6.70
2018-12-30T10:55:50.465Z,6.70
2018-12-30T10:58:20.877Z,6.70
2018-12-30T11:00:51.269Z,6.70
2018-12-30T11:03:21.706Z,6.70
2018-12-30T11:05:52.098Z,6.70
2018-12-30T11:08:22.470Z,6.70
2018-12-30T11:10:52.819Z,6.80
2018-12-30T11:13:23.213Z,6.80
2018-12-30T11:15:53.613Z,6.60
2018-12-30T11:18:24.037Z,6.50
2018-12-30T11:20:54.434Z,6.60
2018-12-30T11:23:24.778Z,6.70
2018-12-30T11:25:55.150Z,6.80
2018-12-30T11:28:25.503Z,6.60
2018-12-30T11:30:55.929Z,6.70
2018-12-30T11:33:26.318Z,6.80
2018-12-30T11:35:56.650Z,6.90
2018-12-30T11:38:27.024Z,6.70
2018-12-30T11:40:57.407Z,6.50
2018-12-30T11:43:27.759Z,6.50
2018-12-30T11:45:58.118Z,6.60
2018-12-30T11:48:28.489Z,6.60
2018-12-30T11:50:58.846Z,6.60
2018-12-30T11:53:29.240Z,6.60
2018-12-30T11:55:59.617Z,6.70
2018-12-30T11:58:29.987Z,6.70
2018-12-30T12:01:00.358Z,6.70
2018-12-30T12:03:30.718Z,6.70
2018-12-30T12:06:01.123Z,6.70
2018-12-30T12:08:31.510Z,6.80
2018-12-30T12:11:01.877Z,6.90
2018-12-30T12:13:32.276Z,7.00
2018-12-30T12:16:02.637Z,7.00
2018-12-30T12:18:32.994Z,6.80
2018-12-30T12:21:03.366Z,6.70
2018-12-30T12:23:33.801Z,6.80
2018-12-30T12:26:04.165Z,6.70
2018-12-30T12:28:34.521Z,6.70
2018-12-30T12:31:04.890Z,6.50
2018-12-30T12:33:35.254Z,6.50
2018-12-30T12:36:05.709Z,6.70
2018-12-30T12:38:36.083Z,6.50
2018-12-30T12:41:06.493Z,6.60
2018-12-30T12:43:36.842Z,6.70
2018-12-30T12:46:07.198Z,6.70
2018-12-30T12:48:37.653Z,6.70
2018-12-30T12:51:08.080Z,6.70
2018-12-30T12:53:38.457Z,6.60
2018-12-30T12:56:09.091Z,6.60
2018-12-30T12:58:39.437Z,6.60
2018-12-30T13:01:09.841Z,6.60
2018-12-30T13:03:40.224Z,6.40
2018-12-30T13:06:10.617Z,6.50
2018-12-30T13:08:41.019Z,6.50
2018-12-30T13:11:11.378Z,6.60
2018-12-30T13:13:41.777Z,6.70
2018-12-30T13:16:12.113Z,6.60
2018-12-30T13:18:42.499Z,6.60
2018-12-30T13:21:12.890Z,6.60
2018-12-30T13:23:43.973Z,6.50
2018-12-30T13:26:14.341Z,6.50
2018-12-30T13:28:44.723Z,6.50
2018-12-30T13:31:15.082Z,6.60
2018-12-30T13:33:46.516Z,6.70
2018-12-30T13:36:18.033Z,6.60
2018-12-30T13:38:48.401Z,6.70
2018-12-30T13:41:18.778Z,6.70
2018-12-30T13:43:49.170Z,6.70
2018-12-30T13:46:19.603Z,6.70
2018-12-30T13:48:49.982Z,6.70
2018-12-30T13:51:20.383Z,6.50
2018-12-30T13:53:50.741Z,6.40
2018-12-30T13:56:21.098Z,6.50
2018-12-30T13:58:51.503Z,6.50
2018-12-30T14:01:21.879Z,6.40
2018-12-30T14:03:52.254Z,6.30
2018-12-30T14:06:22.657Z,6.40
2018-12-30T14:08:53.080Z,6.50
2018-12-30T14:11:24.717Z,6.40
2018-12-30T14:13:55.229Z,6.10
2018-12-30T14:16:25.647Z,6.20
2018-12-30T14:18:56.107Z,6.00
2018-12-30T14:21:26.513Z,6.00
2018-12-30T14:23:56.909Z,5.80
2018-12-30T14:26:27.306Z,5.80
2018-12-30T14:28:57.701Z,5.80
2018-12-30T14:31:28.087Z,5.60
2018-12-30T14:33:58.461Z,5.50
2018-12-30T14:36:28.864Z,5.60
2018-12-30T14:38:59.262Z,5.60
2018-12-30T14:41:29.642Z,5.80
2018-12-30T14:43:59.999Z,5.90
2018-12-30T14:46:34.826Z,5.60
2018-12-30T14:49:02.461Z,5.50
2018-12-30T14:51:32.847Z,5.50
2018-12-30T14:54:03.217Z,5.40
2018-12-30T14:56:33.634Z,5.30
2018-12-30T14:59:04.018Z,5.20
2018-12-30T15:01:34.384Z,5.20
2018-12-30T15:04:04.828Z,5.20
2018-12-30T15:06:35.228Z,5.40
2018-12-30T15:09:08.363Z,5.30
2018-12-30T15:11:38.745Z,5.30
2018-12-30T15:14:09.175Z,5.30
2018-12-30T15:16:39.546Z,5.20
2018-12-30T15:19:09.949Z,5.20
2018-12-30T15:21:40.394Z,5.00
2018-12-30T15:24:10.806Z,5.10
2018-12-30T15:26:41.175Z,5.10
2018-12-30T15:29:11.568Z,5.10
2018-12-30T15:31:41.949Z,5.10
2018-12-30T15:34:12.340Z,5.10
2018-12-30T15:36:42.757Z,5.10
2018-12-30T15:39:13.137Z,5.10
2018-12-30T15:41:43.534Z,5.00
2018-12-30T15:44:13.926Z,4.90
2018-12-30T15:46:44.336Z,4.90
2018-12-30T15:49:14.760Z,5.00
2018-12-30T15:51:45.113Z,5.00
2018-12-30T15:54:15.504Z,5.10
2018-12-30T15:56:46.105Z,4.90
2018-12-30T15:59:16.505Z,4.80
2018-12-30T16:01:46.921Z,4.80
2018-12-30T16:04:17.303Z,4.90
2018-12-30T16:06:47.690Z,5.00
2018-12-30T16:09:18.138Z,4.90
2018-12-30T16:11:48.548Z,5.00
2018-12-30T16:14:18.978Z,5.10
2018-12-30T16:16:49.487Z,5.10
2018-12-30T16:19:19.906Z,5.10
2018-12-30T16:21:50.292Z,5.20
2018-12-30T16:24:20.665Z,5.40
2018-12-30T16:26:51.014Z,5.20
2018-12-30T16:29:21.378Z,5.20
2018-12-30T16:31:51.746Z,5.30
2018-12-30T16:34:22.113Z,5.10
2018-12-30T16:36:52.489Z,4.90
2018-12-30T16:39:22.911Z,5.00
2018-12-30T16:41:53.282Z,5.10
2018-12-30T16:44:23.654Z,5.20
2018-12-30T16:46:54.061Z,5.30
2018-12-30T16:49:24.464Z,5.20
2018-12-30T16:51:55.462Z,5.10
2018-12-30T16:54:25.846Z,5.00
2018-12-30T16:56:56.270Z,5.10
2018-12-30T16:59:26.683Z,5.10
2018-12-30T17:01:57.190Z,5.30
2018-12-30T17:04:27.558Z,5.40
2018-12-30T17:06:57.959Z,5.50
2018-12-30T17:09:28.316Z,5.50
2018-12-30T17:11:58.799Z,5.30
2018-12-30T17:14:29.186Z,5.30
2018-12-30T17:16:59.609Z,5.40
2018-12-30T17:19:30.073Z,5.50
2018-12-30T17:22:00.442Z,5.60
2018-12-30T17:24:30.901Z,5.60
2018-12-30T17:27:01.263Z,5.60
2018-12-30T17:29:31.658Z,5.70
2018-12-30T17:32:02.202Z,5.70
2018-12-30T17:34:32.852Z,5.70
2018-12-30T17:37:03.220Z,5.60
2018-12-30T17:39:33.623Z,5.30
2018-12-30T17:42:04.018Z,5.30
2018-12-30T17:44:34.493Z,5.40
2018-12-30T17:47:04.881Z,5.40
2018-12-30T17:49:35.402Z,5.50
2018-12-30T17:52:05.773Z,5.60
2018-12-30T17:54:36.267Z,5.60
2018-12-30T17:57:06.718Z,5.50
2018-12-30T17:59:37.104Z,5.60
2018-12-30T18:02:07.500Z,5.60
2018-12-30T18:04:37.905Z,5.70
2018-12-30T18:07:08.306Z,5.70
2018-12-30T18:09:38.662Z,5.70
2018-12-30T18:12:09.105Z,5.80
2018-12-30T18:14:39.507Z,5.80
2018-12-30T18:17:09.886Z,5.80
2018-12-30T18:19:40.373Z,5.80
2018-12-30T18:22:11.411Z,5.70
2018-12-30T18:24:42.346Z,5.40
2018-12-30T18:27:12.846Z,5.20
2018-12-30T18:29:43.252Z,5.10
2018-12-30T18:32:13.660Z,5.20
2018-12-30T18:34:44.054Z,5.10
2018-12-30T18:37:14.461Z,5.10
2018-12-30T18:39:44.887Z,5.10
2018-12-30T18:42:15.404Z,5.20
2018-12-30T18:44:45.791Z,5.20
2018-12-30T18:47:16.220Z,5.20
2018-12-30T18:49:46.655Z,5.20
2018-12-30T18:52:17.094Z,5.30
2018-12-30T18:54:47.437Z,5.10
2018-12-30T18:57:17.882Z,5.20
2018-12-30T18:59:48.269Z,5.10
2018-12-30T19:02:18.694Z,5.10
2018-12-30T19:04:49.118Z,5.30
2018-12-30T19:07:19.544Z,5.40
2018-12-30T19:09:49.939Z,5.30
2018-12-30T19:12:20.318Z,5.30
2018-12-30T19:14:50.685Z,5.40
2018-12-30T19:17:21.071Z,5.30
2018-12-30T19:19:53.513Z,5.30
2018-12-30T19:22:23.922Z,5.10
2018-12-30T19:24:54.305Z,5.10
2018-12-30T19:27:24.698Z,5.00
2018-12-30T19:29:55.090Z,4.90
2018-12-30T19:32:25.494Z,4.90
2018-12-30T19:34:55.950Z,4.90
2018-12-30T19:37:26.344Z,4.90
2018-12-30T19:39:56.816Z,4.80
2018-12-30T19:42:27.241Z,4.80
2018-12-30T19:44:57.658Z,4.90
2018-12-30T19:47:28.073Z,4.70
2018-12-30T19:49:58.496Z,4.70
2018-12-30T19:52:28.890Z,4.70
2018-12-30T19:55:00.827Z,4.80
2018-12-30T19:57:31.186Z,4.90
2018-12-30T20:00:01.644Z,4.80
2018-12-30T20:02:32.075Z,4.80
2018-12-30T20:05:02.486Z,4.90
2018-12-30T20:07:32.904Z,5.00
2018-12-30T20:10:03.337Z,4.90
2018-12-30T20:12:33.729Z,5.00
2018-12-30T20:15:04.805Z,5.00
2018-12-30T20:17:35.247Z,4.80
2018-12-30T20:20:05.996Z,4.80
2018-12-30T20:22:36.582Z,4.80
2018-12-30T20:25:06.919Z,4.60
2018-12-30T20:27:37.333Z,4.60
2018-12-30T20:30:08.333Z,4.60
2018-12-30T20:32:38.891Z,4.80
2018-12-30T20:35:09.551Z,4.90
2018-12-30T20:37:40.009Z,4.90
2018-12-30T20:40:10.614Z,4.80
2018-12-30T20:42:41.090Z,4.90
2018-12-30T20:45:11.510Z,4.90
2018-12-30T20:47:41.925Z,5.00
2018-12-30T20:50:12.317Z,4.80
2018-12-30T20:52:42.727Z,4.90
2018-12-30T20:55:13.105Z,5.00
2018-12-30T20:57:43.567Z,5.00
2018-12-30T21:00:15.477Z,5.20
2018-12-30T21:02:46.057Z,5.20
2018-12-30T21:05:16.476Z,5.10
2018-12-30T21:07:46.912Z,5.20
2018-12-30T21:10:17.375Z,5.10
2018-12-30T21:12:47.787Z,5.10
2018-12-30T21:15:18.190Z,5.10
2018-12-30T21:17:48.602Z,5.00
2018-12-30T21:20:19.004Z,5.00
2018-12-30T21:22:49.408Z,5.00
2018-12-30T21:25:19.825Z,5.10
2018-12-30T21:27:50.238Z,5.20
2018-12-30T21:30:20.814Z,5.10
2018-12-30T21:32:51.207Z,5.20
2018-12-30T21:35:21.631Z,5.20
2018-12-30T21:37:52.097Z,5.10
2018-12-30T21:40:22.523Z,4.90
2018-12-30T21:42:52.937Z,5.00
2018-12-30T21:45:23.336Z,5.10
2018-12-30T21:47:53.789Z,5.20
2018-12-30T21:50:24.309Z,5.10
2018-12-30T21:52:54.744Z,5.10
2018-12-30T21:55:25.197Z,5.00
2018-12-30T21:57:55.583Z,4.90
2018-12-30T22:00:26.017Z,4.80
2018-12-30T22:02:56.410Z,4.80
2018-12-30T22:05:26.804Z,4.90
2018-12-30T22:07:57.199Z,4.90
2018-12-30T22:10:27.633Z,4.90
2018-12-30T22:12:58.969Z,5.00
2018-12-30T22:15:29.517Z,5.10
2018-12-30T22:18:00.035Z,5.10
2018-12-30T22:20:30.590Z,5.00
2018-12-30T22:23:01.022Z,4.90
2018-12-30T22:25:31.519Z,5.00
2018-12-30T22:28:01.945Z,5.00
2018-12-30T22:30:32.366Z,4.90
2018-12-30T22:33:02.793Z,4.90
2018-12-30T22:35:33.268Z,4.90
2018-12-30T22:38:03.694Z,4.90
2018-12-30T22:40:34.082Z,4.90
2018-12-30T22:43:05.157Z,4.90
2018-12-30T22:45:35.638Z,5.00
2018-12-30T22:48:06.136Z,5.10
2018-12-30T22:50:36.521Z,5.20
2018-12-30T22:53:06.954Z,5.20
2018-12-30T22:55:37.366Z,5.20
2018-12-30T22:58:07.778Z,5.20
2018-12-30T23:00:56.197Z,5.20
2018-12-30T23:03:26.623Z,5.20
2018-12-30T23:05:57.039Z,5.10
2018-12-30T23:08:27.465Z,4.90
2018-12-30T23:10:57.859Z,4.80
2018-12-30T23:13:28.375Z,4.90
2018-12-30T23:15:58.914Z,5.00
2018-12-30T23:18:29.352Z,5.00
2018-12-30T23:20:59.709Z,5.10
2018-12-30T23:23:30.110Z,5.00
2018-12-30T23:26:00.488Z,4.90
2018-12-30T23:28:30.977Z,4.90
2018-12-30T23:31:01.370Z,4.80
2018-12-30T23:33:31.810Z,4.70
2018-12-30T23:36:02.282Z,4.70
2018-12-30T23:38:32.709Z,4.70
2018-12-30T23:41:03.117Z,4.70
2018-12-30T23:43:33.516Z,4.80
2018-12-30T23:46:03.903Z,4.80
2018-12-30T23:48:34.343Z,4.80
2018-12-30T23:51:04.994Z,4.90
2018-12-30T23:53:35.641Z,4.70
2018-12-30T23:56:06.052Z,4.80
2018-12-30T23:58:36.493Z,4.90
